ADDS METAR Data INFO
IDs: Format: Raw Decoded Include TAF

Data at: 0845 UTC 27 Jun 2017

KLRD 270756Z AUTO 06006KT 10SM CLR 24/23 A2999 RMK AO2 SLP154 T02440228 $
KLRD 270656Z AUTO 09004KT 10SM CLR 24/23 A3000 RMK AO2 SLP158 T02440228 $
KLRD 270556Z AUTO 10004KT 10SM CLR 25/23 A3000 RMK AO2 SLP159 60005 T02500228 10289 20250 403610233 53010 $
KLRD 270456Z AUTO 10005KT 10SM CLR 26/23 A2999 RMK AO2 SLP156 T02560228 $
KLRD 270356Z 10007KT 10SM CLR 26/23 A2997 RMK AO2 SLP148 T02610228 $
KLRD 270256Z 10008KT 10SM CLR 27/23 A2997 RMK AO2 SLP148 60005 T02670233 53009 $
KLRD 270156Z 11011G16KT 10SM CLR 27/23 A2996 RMK AO2 SLP146 T02720228 $
KLRD 270056Z 10014KT 10SM CLR 28/23 A2995 RMK AO2 SLP142 P0005 T02830233 $
KLRD 262356Z 08011KT 8SM FEW029 SCT048 OVC070 27/24 A2994 RMK AO2 WSHFT 2320 SLP140 P0012 60012 T02670239 10361 20261 55002 $
KLRD 262343Z 06012KT 10SM FEW009 BKN048 OVC100 26/24 A2994 RMK AO2 WSHFT 2320 P0010 $
KLRD 262315Z 14014KT 7SM FEW030 BKN060 OVC075 28/24 A2993 RMK AO2 WSHFT 2243 P0007 $
KLRD 262302Z 12016KT 2 1/2SM BKN060 31/23 A2993 RMK AO2 WSHFT 2243 P0001 $
KLRD 262256Z 13011G25KT 4SM BKN065 32/23 A2993 RMK AO2 WSHFT 2240 SLP134 T03170228 $
KLRD 262156Z VRB06KT 10SM FEW085 36/20 A2993 RMK AO2 LTG DSNT SE SLP132 T03560200 $
KLRD 262056Z 00000KT 10SM CLR 35/21 A2995 RMK AO2 SLP139 T03500206 56033 $
KLRD 261956Z 08008KT 10SM SCT070 34/21 A2997 RMK AO2 SLP148 T03390206 $
KLRD 261856Z 00000KT 10SM CLR 32/22 A3001 RMK AO2 SLP161 T03170217 $
KLRD 261756Z 27009KT 10SM SCT040 BKN080 BKN110 27/22 A3005 RMK AO2 SLP175 P0045 60046 T02720222 10306 20233 58015 $
KLRD 261656Z 26003KT 10SM SCT027 SCT032 29/23 A3007 RMK AO2 SLP183 P0001 T02890233 $
KLRD 261556Z 11003KT 10SM CLR 29/23 A3009 RMK AO2 SLP187 T02940228 $
KLRD 261456Z 06003KT 10SM SCT013 28/23 A3009 RMK AO2 SLP189 T02780233 50007 $
KLRD 261402Z 04007KT 10SM SCT005 25/23 A3010 RMK AO2 $
KLRD 261356Z 04005KT 10SM BKN003 25/23 A3010 RMK AO2 SLP191 T02500233 $
KLRD 261325Z 05007KT 3SM OVC003 24/23 A3009 RMK AO2 $
KLRD 261319Z 06006KT 1 1/4SM OVC003 24/23 A3009 RMK AO2 $
KLRD 261311Z 05007KT 3/4SM OVC003 24/23 A3009 RMK AO2 $
KLRD 261256Z 06007KT 1 3/4SM OVC003 23/23 A3008 RMK AO2 VIS 1V3 SLP185 T02330233 $
KLRD 261241Z 05008KT 1 1/4SM OVC003 23/23 A3007 RMK AO2 $
KLRD 261231Z 06006KT 3/4SM OVC003 23/23 A3008 RMK AO2 $
KLRD 261205Z 05008KT 3/4SM OVC003 23/23 A3007 RMK AO2 $
KLRD 261156Z 05007KT 1 3/4SM OVC003 23/23 A3007 RMK AO2 VIS 1V3 SLP183 T02330228 10256 20233 53002 $
KLRD 261147Z 05008KT 4SM BKN003 23/23 A3007 RMK AO2 $
KLRD 261133Z 06007KT 10SM SCT003 23/23 A3007 RMK AO2 $
KLRD 261056Z AUTO 06007KT 10SM CLR 24/23 A3006 RMK AO2 SLP181 T02390228 $
KLRD 260956Z AUTO 06008KT 10SM CLR 24/23 A3007 RMK AO2 SLP182 T02390228 $
KLRD 260856Z AUTO 07008KT 10SM FEW014 SCT020 24/23 A3006 RMK AO2 SLP181 T02440228 55003 $
KLRD 260756Z AUTO 06006KT 10SM CLR 24/23 A3006 RMK AO2 SLP179 T02440228 $
KLRD 260656Z AUTO 09005KT 10SM CLR 25/23 A3006 RMK AO2 SLP180 T02500228 $
KLRD 260556Z AUTO 11006KT 10SM SCT032 26/23 A3007 RMK AO2 SLP182 T02560228 10300 20256 403390250 50007 $
KLRD 260456Z AUTO 11005KT 10SM CLR 26/22 A3007 RMK AO2 SLP183 T02610222 $
KLRD 260356Z AUTO 12007KT 10SM CLR 27/22 A3006 RMK AO2 SLP178 T02670222 $
KLRD 260256Z AUTO 10006KT 10SM CLR 27/22 A3005 RMK AO2 SLP175 T02720217 53003 $
KLRD 260156Z AUTO 06005KT 10SM CLR 28/22 A3005 RMK AO2 SLP174 T02830217 $
KLRD 260056Z AUTO 05008KT 10SM CLR 29/22 A3004 RMK AO2 SLP173 T02940217 $
KLRD 252356Z 06005KT 10SM CLR 29/22 A3004 RMK AO2 SLP172 T02940222 10300 20267 56012 $
KLRD 252256Z 04005KT 10SM CLR 29/23 A3005 RMK AO2 SLP174 T02890228 $
KLRD 252156Z 35005KT 10SM CLR 28/23 A3006 RMK AO2 SLP180 T02780233 $
KLRD 252056Z 07006KT 10SM FEW110 27/23 A3008 RMK AO2 TSE18 SLP185 T02720228 56007 $


Page loaded:  08:45 UTC  |   01:45 AM Pacific  |   02:45 AM Mountain  |   03:45 AM Central  |   04:45 AM Eastern

 

ADVISORIES

FORECASTS

FORECASTS

OBSERVATIONS

USER TOOLS

ABOUT US